createdAt,value
2022-09-20T00:01:58.972Z,0.20
2022-09-20T00:04:28.405Z,0.10
2022-09-20T00:06:57.864Z,0.27
2022-09-20T00:09:27.317Z,0.13
2022-09-20T00:11:56.852Z,0.20
2022-09-20T00:14:26.381Z,0.20
2022-09-20T00:16:55.908Z,0.20
2022-09-20T00:19:26.520Z,0.10
2022-09-20T00:21:56.039Z,0.10
2022-09-20T00:24:25.756Z,0.20
2022-09-20T00:26:55.277Z,0.20
2022-09-20T00:29:25.599Z,0.10
2022-09-20T00:31:55.112Z,0.20
2022-09-20T00:34:42.705Z,0.10
2022-09-20T00:37:12.150Z,0.10
2022-09-20T00:39:41.607Z,0.30
2022-09-20T00:42:17.325Z,0.20
2022-09-20T00:45:00.618Z,0.20
2022-09-20T00:47:58.293Z,0.10
2022-09-20T00:50:43.979Z,0.20
2022-09-20T00:53:29.690Z,0.10
2022-09-20T00:56:03.755Z,0.17
2022-09-20T00:58:37.813Z,0.20
2022-09-20T01:01:08.797Z,0.20
2022-09-20T01:03:41.579Z,0.10
2022-09-20T01:06:15.634Z,0.20
2022-09-20T01:08:49.726Z,0.20
2022-09-20T01:11:19.721Z,0.10
2022-09-20T01:13:49.167Z,0.20
2022-09-20T01:16:20.890Z,0.17
2022-09-20T01:18:51.654Z,0.20
2022-09-20T01:21:22.317Z,0.07
2022-09-20T01:24:05.560Z,0.13
2022-09-20T01:26:39.630Z,0.20
2022-09-20T01:29:28.997Z,0.10
2022-09-20T01:32:03.449Z,0.10
2022-09-20T01:34:39.589Z,0.20
2022-09-20T01:37:19.258Z,0.20
2022-09-20T01:40:12.745Z,0.20
2022-09-20T01:42:49.464Z,0.17
2022-09-20T01:45:31.139Z,0.20
2022-09-20T01:48:27.549Z,0.20
2022-09-20T01:51:45.095Z,0.20
2022-09-20T01:54:45.886Z,0.10
2022-09-20T01:57:40.523Z,0.20
2022-09-20T02:00:19.837Z,0.20
2022-09-20T02:03:29.093Z,0.10
2022-09-20T02:06:09.031Z,0.10
2022-09-20T02:09:33.414Z,0.10
2022-09-20T02:12:39.402Z,0.20
2022-09-20T02:15:21.746Z,0.20
2022-09-20T02:18:12.526Z,0.20
2022-09-20T02:21:01.602Z,0.20
2022-09-20T02:23:47.440Z,0.10
2022-09-20T02:26:39.436Z,0.20
2022-09-20T02:29:30.138Z,0.10
2022-09-20T02:32:23.845Z,0.10
2022-09-20T02:35:07.023Z,0.10
2022-09-20T02:38:14.239Z,0.13
2022-09-20T02:41:33.777Z,0.10
2022-09-20T02:44:46.736Z,0.10
2022-09-20T02:47:29.218Z,0.20
2022-09-20T02:50:38.578Z,0.10
2022-09-20T02:53:26.755Z,0.10
2022-09-20T02:56:15.652Z,0.10
2022-09-20T02:59:04.163Z,0.20
2022-09-20T03:01:38.357Z,0.30
2022-09-20T03:04:39.435Z,0.20
2022-09-20T03:07:43.604Z,0.10
2022-09-20T03:10:41.714Z,0.10
2022-09-20T03:13:56.129Z,0.10
2022-09-20T03:16:52.065Z,0.10
2022-09-20T03:19:49.355Z,0.10
2022-09-20T03:22:43.151Z,0.13
2022-09-20T03:25:37.561Z,0.10
2022-09-20T03:28:44.985Z,0.10
2022-09-20T03:31:30.945Z,0.17
2022-09-20T03:34:16.078Z,0.20
2022-09-20T03:37:10.514Z,0.10
2022-09-20T03:40:04.932Z,0.10
2022-09-20T03:42:37.349Z,0.10
2022-09-20T03:45:35.633Z,0.10
2022-09-20T03:48:33.600Z,0.10
2022-09-20T03:51:33.621Z,0.20
2022-09-20T03:54:33.380Z,0.10
2022-09-20T03:57:27.851Z,0.10
2022-09-20T04:00:18.228Z,0.10
2022-09-20T04:03:13.027Z,0.20
2022-09-20T04:05:52.856Z,0.10
2022-09-20T04:08:41.314Z,0.10
2022-09-20T04:11:40.842Z,0.20
2022-09-20T04:14:26.125Z,0.10
2022-09-20T04:17:22.807Z,0.13
2022-09-20T04:20:28.726Z,0.10
2022-09-20T04:23:03.031Z,0.10
2022-09-20T04:25:46.086Z,0.10
2022-09-20T04:28:28.870Z,0.20
2022-09-20T04:31:02.915Z,0.10
2022-09-20T04:33:39.530Z,0.17
2022-09-20T04:36:36.037Z,0.10
2022-09-20T04:39:27.869Z,0.20
2022-09-20T04:42:42.742Z,0.13
2022-09-20T04:45:34.744Z,0.23
2022-09-20T04:48:38.153Z,0.10
2022-09-20T04:51:26.808Z,0.10
2022-09-20T04:54:20.882Z,0.20
2022-09-20T04:57:16.015Z,0.10
2022-09-20T05:00:13.334Z,0.20
2022-09-20T05:03:05.577Z,0.13
2022-09-20T05:05:51.657Z,0.17
2022-09-20T05:08:37.167Z,0.17
2022-09-20T05:11:53.749Z,0.20
2022-09-20T05:14:59.429Z,0.20
2022-09-20T05:18:01.615Z,0.20
2022-09-20T05:20:59.373Z,0.23
2022-09-20T05:23:54.024Z,0.13
2022-09-20T05:26:50.465Z,0.20
2022-09-20T05:29:37.088Z,0.10
2022-09-20T05:32:28.532Z,0.13
2022-09-20T05:35:05.630Z,0.10
2022-09-20T05:37:51.397Z,0.20
2022-09-20T05:40:43.638Z,0.20
2022-09-20T05:43:34.107Z,0.10
2022-09-20T05:46:30.076Z,0.10
2022-09-20T05:49:22.621Z,0.20
2022-09-20T05:52:17.172Z,0.30
2022-09-20T05:55:18.036Z,0.30
2022-09-20T05:58:28.585Z,0.10
2022-09-20T06:01:23.989Z,0.20
2022-09-20T06:04:22.218Z,0.10
2022-09-20T06:07:10.593Z,0.20
2022-09-20T06:09:47.207Z,0.10
2022-09-20T06:12:30.643Z,0.20
2022-09-20T06:15:24.171Z,0.30
2022-09-20T06:18:10.177Z,0.30
2022-09-20T06:20:50.301Z,0.50
2022-09-20T06:23:21.363Z,0.23
2022-09-20T06:26:05.782Z,0.27
2022-09-20T06:28:45.646Z,0.30
2022-09-20T06:31:15.560Z,0.20
2022-09-20T06:33:52.270Z,0.20
2022-09-20T06:36:46.491Z,0.17
2022-09-20T06:40:07.233Z,0.20
2022-09-20T06:42:38.394Z,0.20
2022-09-20T06:45:08.652Z,0.30
2022-09-20T06:47:38.997Z,0.30
2022-09-20T06:50:10.279Z,0.30
2022-09-20T06:52:42.929Z,0.23
2022-09-20T06:55:29.033Z,0.50
2022-09-20T06:57:56.949Z,0.50
2022-09-20T07:00:26.439Z,1.05
2022-09-20T07:02:56.669Z,0.57
2022-09-20T07:05:26.590Z,1.17
2022-09-20T07:08:01.436Z,0.80
2022-09-20T07:10:31.512Z,0.70
2022-09-20T07:13:03.150Z,0.50
2022-09-20T07:15:37.989Z,0.60
2022-09-20T07:18:08.163Z,0.60
2022-09-20T07:20:37.842Z,0.60
2022-09-20T07:23:07.771Z,0.77
2022-09-20T07:25:38.468Z,0.70
2022-09-20T07:28:07.921Z,0.63
2022-09-20T07:30:39.041Z,0.50
2022-09-20T07:33:10.134Z,0.50
2022-09-20T07:35:40.019Z,0.50
2022-09-20T07:38:10.251Z,0.40
2022-09-20T07:40:39.735Z,0.50
2022-09-20T07:43:09.764Z,0.30
2022-09-20T07:45:39.735Z,0.60
2022-09-20T07:48:09.757Z,0.40
2022-09-20T07:50:39.193Z,1.07
2022-09-20T07:53:08.651Z,0.60
2022-09-20T07:55:38.096Z,0.50
2022-09-20T07:58:07.561Z,0.80
2022-09-20T08:00:36.998Z,0.77
2022-09-20T08:03:06.458Z,0.70
2022-09-20T08:05:35.896Z,0.80
2022-09-20T08:08:05.364Z,0.70
2022-09-20T08:10:35.187Z,1.00
2022-09-20T08:15:36.392Z,0.80
2022-09-20T08:18:07.220Z,0.80
2022-09-20T08:20:40.914Z,0.80
2022-09-20T08:23:23.511Z,0.70
2022-09-20T08:25:42.017Z,0.60
2022-09-20T08:28:11.478Z,0.67
2022-09-20T08:30:40.990Z,0.97
2022-09-20T08:33:11.643Z,0.90
2022-09-20T08:35:41.074Z,0.97
2022-09-20T08:40:42.095Z,0.70
2022-09-20T08:43:13.141Z,1.40
2022-09-20T08:45:43.068Z,0.90
2022-09-20T08:48:17.180Z,1.03
2022-09-20T08:50:46.624Z,1.50
2022-09-20T08:53:21.256Z,0.80
2022-09-20T08:55:48.442Z,1.30
2022-09-20T08:58:19.153Z,1.13
2022-09-20T09:00:49.213Z,1.23
2022-09-20T09:03:20.811Z,1.30
2022-09-20T09:05:54.601Z,1.13
2022-09-20T09:08:38.280Z,1.23
2022-09-20T09:11:17.145Z,1.23
2022-09-20T09:14:49.555Z,0.90
2022-09-20T09:17:28.692Z,1.03
2022-09-20T09:20:16.469Z,1.00
2022-09-20T09:22:49.023Z,0.93
2022-09-20T09:25:34.307Z,0.87
2022-09-20T09:28:11.082Z,0.83
2022-09-20T09:30:44.202Z,0.73
2022-09-20T09:33:32.976Z,1.67
2022-09-20T09:36:15.978Z,0.90
2022-09-20T09:38:48.138Z,1.00
2022-09-20T09:41:32.526Z,1.00
2022-09-20T09:44:10.972Z,0.70
2022-09-20T09:46:41.478Z,1.57
2022-09-20T09:49:21.177Z,1.40
2022-09-20T09:52:21.558Z,0.80
2022-09-20T09:55:04.671Z,0.83
2022-09-20T09:57:59.310Z,1.00
2022-09-20T10:00:32.643Z,1.00
2022-09-20T10:03:34.091Z,1.17
2022-09-20T10:06:22.858Z,1.17
2022-09-20T10:09:24.199Z,1.07
2022-09-20T10:12:11.182Z,0.73
2022-09-20T10:14:57.071Z,0.90
2022-09-20T10:17:46.251Z,1.10
2022-09-20T10:20:55.979Z,1.10
2022-09-20T10:24:02.158Z,1.40
2022-09-20T10:26:49.272Z,0.90
2022-09-20T10:29:58.240Z,0.90
2022-09-20T10:32:51.620Z,0.90
2022-09-20T10:35:40.644Z,1.20
2022-09-20T10:38:28.870Z,0.87
2022-09-20T10:41:34.879Z,1.20
2022-09-20T10:44:20.891Z,0.77
2022-09-20T10:47:00.797Z,0.87
2022-09-20T10:49:48.497Z,1.10
2022-09-20T10:52:48.823Z,0.87
2022-09-20T10:55:46.741Z,0.87
2022-09-20T10:59:06.747Z,0.80
2022-09-20T11:02:02.094Z,0.80
2022-09-20T11:04:58.789Z,1.17
2022-09-20T11:07:52.340Z,1.00
2022-09-20T11:10:43.575Z,0.90
2022-09-20T11:13:44.054Z,1.13
2022-09-20T11:16:43.799Z,1.00
2022-09-20T11:19:37.514Z,0.93
2022-09-20T11:22:40.924Z,0.80
2022-09-20T11:25:37.229Z,1.10
2022-09-20T11:28:14.079Z,0.70
2022-09-20T11:30:55.010Z,0.60
2022-09-20T11:33:31.900Z,1.00
2022-09-20T11:36:05.993Z,0.97
2022-09-20T11:38:54.354Z,1.20
2022-09-20T11:41:29.907Z,1.27
2022-09-20T11:44:13.240Z,1.10
2022-09-20T11:47:02.808Z,0.80
2022-09-20T11:49:57.522Z,0.57
2022-09-20T11:52:34.376Z,0.70
2022-09-20T11:55:29.071Z,0.50
2022-09-20T11:58:06.913Z,0.30
2022-09-20T12:00:41.501Z,0.40
2022-09-20T12:03:37.344Z,0.50
2022-09-20T12:06:23.314Z,0.50
2022-09-20T12:08:53.983Z,0.50
2022-09-20T12:11:40.202Z,0.67
2022-09-20T12:14:22.567Z,0.47
2022-09-20T12:16:52.915Z,0.40
2022-09-20T12:19:38.765Z,0.60
2022-09-20T12:22:15.531Z,0.50
2022-09-20T12:24:45.677Z,0.50
2022-09-20T12:27:34.994Z,0.50
2022-09-20T12:30:22.918Z,0.50
2022-09-20T12:33:02.167Z,0.50
2022-09-20T12:35:53.676Z,0.50
2022-09-20T12:38:31.225Z,0.43
2022-09-20T12:41:10.418Z,0.30
2022-09-20T12:43:50.122Z,0.30
2022-09-20T12:46:32.527Z,0.30
2022-09-20T12:50:02.099Z,0.30
2022-09-20T12:52:50.933Z,0.20
2022-09-20T12:55:54.928Z,0.30
2022-09-20T12:58:29.588Z,0.30
2022-09-20T13:01:14.103Z,0.20
2022-09-20T13:03:44.875Z,0.20
2022-09-20T13:06:22.887Z,0.10
2022-09-20T13:09:10.932Z,0.10
2022-09-20T13:11:56.937Z,0.10
2022-09-20T13:14:31.326Z,0.20
2022-09-20T13:17:30.396Z,0.13
2022-09-20T13:20:00.776Z,0.10
2022-09-20T13:22:41.725Z,0.10
2022-09-20T13:25:15.694Z,0.10
2022-09-20T13:28:28.825Z,0.10
2022-09-20T13:31:25.011Z,0.10
2022-09-20T13:33:54.873Z,0.20
2022-09-20T13:36:31.745Z,0.10
2022-09-20T13:39:02.956Z,0.10
2022-09-20T13:41:33.449Z,0.20
2022-09-20T13:44:03.606Z,0.43
2022-09-20T13:46:35.004Z,0.20
2022-09-20T13:49:19.678Z,0.10
2022-09-20T13:51:50.968Z,0.20
2022-09-20T13:54:33.402Z,0.10
2022-09-20T13:57:06.827Z,0.20
2022-09-20T13:59:44.859Z,0.20
2022-09-20T14:02:35.236Z,0.20
2022-09-20T14:05:07.474Z,0.20
2022-09-20T14:07:37.320Z,0.20
2022-09-20T14:10:10.008Z,0.10
2022-09-20T14:12:40.001Z,0.20
2022-09-20T14:15:11.701Z,0.30
2022-09-20T14:17:41.934Z,0.10
2022-09-20T14:20:17.980Z,0.20
2022-09-20T14:22:47.500Z,0.10
2022-09-20T14:25:21.941Z,0.20
2022-09-20T14:28:06.514Z,0.33
2022-09-20T14:30:38.505Z,0.10
2022-09-20T14:33:12.071Z,0.10
2022-09-20T14:35:52.038Z,0.23
2022-09-20T14:38:26.117Z,0.20
2022-09-20T14:40:56.799Z,0.20
2022-09-20T14:43:36.268Z,0.13
2022-09-20T14:46:10.602Z,0.10
2022-09-20T14:48:42.047Z,0.10
2022-09-20T14:51:26.265Z,0.30
2022-09-20T14:54:09.113Z,0.20
2022-09-20T14:56:44.485Z,0.17
2022-09-20T14:59:24.812Z,0.20
2022-09-20T15:02:11.069Z,0.10
2022-09-20T15:04:44.113Z,0.20
2022-09-20T15:07:13.595Z,0.10
2022-09-20T15:09:43.595Z,0.20
2022-09-20T15:12:17.758Z,0.20
2022-09-20T15:14:48.615Z,0.20
2022-09-20T15:17:21.683Z,0.20
2022-09-20T15:19:51.672Z,0.20
2022-09-20T15:22:21.122Z,0.10
2022-09-20T15:24:50.570Z,0.10
2022-09-20T15:27:20.094Z,0.20
2022-09-20T15:29:49.607Z,0.20
2022-09-20T15:32:19.068Z,0.10
2022-09-20T15:34:48.517Z,0.20
2022-09-20T15:37:17.961Z,0.13
2022-09-20T15:39:47.407Z,0.17
2022-09-20T15:42:16.861Z,0.10
2022-09-20T15:44:46.471Z,0.10
2022-09-20T15:47:16.228Z,0.13
2022-09-20T15:49:46.724Z,0.10
2022-09-20T15:52:16.444Z,0.30
2022-09-20T15:54:46.156Z,0.20
2022-09-20T15:57:15.980Z,0.20
2022-09-20T15:59:45.798Z,0.20
2022-09-20T16:02:15.411Z,0.20
2022-09-20T16:04:44.872Z,0.20
2022-09-20T16:07:16.204Z,0.17
2022-09-20T16:09:45.666Z,0.20
2022-09-20T16:12:15.119Z,0.10
2022-09-20T16:14:44.582Z,0.20
2022-09-20T16:17:14.117Z,0.20
2022-09-20T16:19:44.834Z,0.30
2022-09-20T16:22:14.289Z,0.20
2022-09-20T16:24:44.107Z,0.20
2022-09-20T16:27:13.557Z,0.10
2022-09-20T16:29:43.027Z,0.20
2022-09-20T16:32:12.503Z,0.20
2022-09-20T16:34:41.926Z,0.10
2022-09-20T16:37:16.861Z,0.10
2022-09-20T16:39:46.294Z,0.10
2022-09-20T16:42:15.753Z,0.10
2022-09-20T16:44:45.742Z,0.10
2022-09-20T16:47:24.734Z,0.10
2022-09-20T16:49:54.760Z,0.10
2022-09-20T16:52:25.928Z,0.10
2022-09-20T16:54:56.051Z,0.10
2022-09-20T16:57:25.672Z,0.20
2022-09-20T16:59:55.793Z,0.10
2022-09-20T17:02:25.248Z,0.20
2022-09-20T17:04:55.892Z,0.20
2022-09-20T17:07:25.361Z,0.20
2022-09-20T17:09:56.451Z,0.10
2022-09-20T17:12:27.550Z,0.10
2022-09-20T17:14:56.984Z,0.20
2022-09-20T17:17:26.444Z,0.00
2022-09-20T17:19:55.887Z,0.20
2022-09-20T17:22:25.361Z,0.10
2022-09-20T17:24:54.802Z,0.10
2022-09-20T17:27:24.267Z,0.10
2022-09-20T17:29:53.813Z,0.17
2022-09-20T17:32:24.055Z,0.10
2022-09-20T17:34:53.785Z,0.20
2022-09-20T17:37:23.418Z,0.10
2022-09-20T17:39:52.967Z,0.10
2022-09-20T17:42:22.549Z,0.20
2022-09-20T17:44:52.163Z,0.20
2022-09-20T17:47:22.570Z,0.20
2022-09-20T17:49:52.175Z,0.20
2022-09-20T17:52:21.643Z,0.20
2022-09-20T17:54:51.246Z,0.30
2022-09-20T17:57:20.714Z,0.30
2022-09-20T17:59:50.197Z,0.57
2022-09-20T18:02:19.640Z,0.40
2022-09-20T18:04:49.668Z,0.60
2022-09-20T18:07:19.126Z,0.50
2022-09-20T18:09:49.016Z,0.33
2022-09-20T18:12:21.395Z,0.40
2022-09-20T18:14:49.801Z,0.30
2022-09-20T18:17:19.330Z,0.40
2022-09-20T18:19:48.936Z,0.33
2022-09-20T18:22:18.642Z,0.40
2022-09-20T18:24:48.080Z,0.50
2022-09-20T18:27:17.555Z,0.30
2022-09-20T18:29:46.992Z,0.40
2022-09-20T18:32:16.624Z,0.40
2022-09-20T18:34:47.701Z,0.30
2022-09-20T18:37:17.334Z,0.30
2022-09-20T18:39:46.774Z,0.47
2022-09-20T18:42:16.506Z,0.20
2022-09-20T18:44:46.114Z,0.20
2022-09-20T18:47:15.570Z,0.30
2022-09-20T18:52:15.785Z,0.30
2022-09-20T18:54:45.241Z,0.40
2022-09-20T18:57:15.468Z,0.30
2022-09-20T18:59:54.111Z,0.40
2022-09-20T19:02:44.373Z,0.60
2022-09-20T19:05:21.013Z,0.67
2022-09-20T19:08:12.332Z,0.70
2022-09-20T19:10:52.274Z,0.70
2022-09-20T19:13:56.598Z,0.70
2022-09-20T19:16:41.745Z,0.83
2022-09-20T19:19:47.700Z,1.10
2022-09-20T19:22:45.748Z,0.60
2022-09-20T19:25:25.804Z,0.60
2022-09-20T19:27:55.403Z,0.60
2022-09-20T19:30:25.563Z,0.90
2022-09-20T19:32:55.723Z,0.60
2022-09-20T19:35:29.777Z,0.60
2022-09-20T19:38:18.538Z,0.63
2022-09-20T19:40:55.088Z,0.60
2022-09-20T19:44:00.620Z,0.63
2022-09-20T19:46:49.824Z,0.40
2022-09-20T19:49:48.181Z,0.60
2022-09-20T19:52:19.162Z,0.50
2022-09-20T19:54:49.282Z,0.50
2022-09-20T19:57:25.614Z,0.40
2022-09-20T19:59:56.538Z,0.53
2022-09-20T20:02:26.499Z,0.30
2022-09-20T20:04:56.271Z,0.40
2022-09-20T20:07:41.699Z,0.40
2022-09-20T20:10:19.062Z,0.30
2022-09-20T20:13:12.588Z,0.33
2022-09-20T20:15:50.424Z,0.40
2022-09-20T20:18:30.283Z,0.30
2022-09-20T20:21:01.537Z,0.40
2022-09-20T20:23:43.957Z,0.40
2022-09-20T20:26:25.864Z,0.40
2022-09-20T20:28:55.384Z,0.50
2022-09-20T20:31:25.062Z,0.40
2022-09-20T20:33:54.720Z,0.40
2022-09-20T20:36:24.188Z,0.40
2022-09-20T20:38:55.125Z,0.43
2022-09-20T20:41:24.572Z,0.60
2022-09-20T20:43:56.269Z,0.60
2022-09-20T20:46:27.013Z,0.47
2022-09-20T20:48:57.309Z,0.60
2022-09-20T20:51:27.356Z,0.70
2022-09-20T20:53:58.405Z,0.60
2022-09-20T20:56:30.633Z,0.37
2022-09-20T20:59:00.938Z,0.53
2022-09-20T21:01:34.181Z,0.60
2022-09-20T21:04:07.207Z,0.50
2022-09-20T21:06:41.437Z,0.50
2022-09-20T21:09:13.490Z,0.70
2022-09-20T21:11:44.073Z,0.67
2022-09-20T21:14:15.759Z,0.70
2022-09-20T21:16:45.604Z,0.70
2022-09-20T21:19:16.845Z,0.70
2022-09-20T21:21:48.481Z,0.63
2022-09-20T21:24:18.495Z,0.70
2022-09-20T21:26:48.518Z,0.57
2022-09-20T21:29:19.550Z,0.70
2022-09-20T21:31:49.243Z,0.93
2022-09-20T21:34:18.958Z,0.60
2022-09-20T21:36:48.421Z,0.70
2022-09-20T21:39:17.862Z,0.40
2022-09-20T21:41:48.667Z,0.60
2022-09-20T21:44:19.749Z,0.67
2022-09-20T21:46:49.983Z,0.70
2022-09-20T21:49:19.424Z,0.50
2022-09-20T21:51:50.528Z,0.57
2022-09-20T21:54:20.169Z,0.70
2022-09-20T21:56:50.044Z,0.57
2022-09-20T21:59:20.458Z,0.53
2022-09-20T22:01:50.333Z,0.57
2022-09-20T22:04:19.785Z,0.50
2022-09-20T22:06:49.244Z,0.40
2022-09-20T22:09:19.355Z,0.50
2022-09-20T22:11:50.365Z,0.63
2022-09-20T22:14:20.607Z,0.70
2022-09-20T22:16:51.384Z,0.60
2022-09-20T22:19:21.267Z,0.50
2022-09-20T22:21:52.038Z,0.33
2022-09-20T22:24:21.485Z,0.50
2022-09-20T22:26:53.667Z,0.60
2022-09-20T22:29:23.377Z,0.47
2022-09-20T22:31:53.205Z,0.60
2022-09-20T22:34:24.760Z,0.50
2022-09-20T22:36:54.228Z,0.30
2022-09-20T22:39:23.667Z,0.40
2022-09-20T22:41:53.392Z,0.50
2022-09-20T22:44:22.850Z,0.40
2022-09-20T22:46:52.310Z,0.30
2022-09-20T22:49:21.747Z,0.30
2022-09-20T22:51:52.264Z,0.40
2022-09-20T22:54:21.722Z,0.50
2022-09-20T22:56:51.184Z,0.30
2022-09-20T22:59:20.620Z,0.60
2022-09-20T23:01:50.257Z,0.50
2022-09-20T23:04:23.449Z,0.70
2022-09-20T23:06:57.982Z,0.50
2022-09-20T23:09:28.366Z,0.70
2022-09-20T23:11:58.010Z,0.60
2022-09-20T23:14:27.444Z,0.43
2022-09-20T23:16:56.955Z,0.50
2022-09-20T23:19:26.463Z,0.40
2022-09-20T23:21:55.897Z,0.60
2022-09-20T23:24:25.372Z,0.40
2022-09-20T23:26:54.833Z,0.30
2022-09-20T23:29:25.875Z,0.50
2022-09-20T23:31:55.348Z,0.30
2022-09-20T23:34:24.837Z,0.40
2022-09-20T23:36:54.325Z,0.40
2022-09-20T23:39:23.781Z,0.30
2022-09-20T23:41:53.246Z,0.33
2022-09-20T23:44:22.721Z,0.57
2022-09-20T23:46:52.379Z,0.40
2022-09-20T23:49:21.831Z,0.50
2022-09-20T23:51:51.285Z,0.40
2022-09-20T23:54:20.737Z,0.50
2022-09-20T23:56:50.194Z,0.40
2022-09-20T23:59:20.336Z,0.40
